createdAt,value
2023-05-01T00:00:05.774Z,95954
2023-05-01T00:01:05.733Z,95952
2023-05-01T00:02:05.723Z,95951
2023-05-01T00:03:05.793Z,95949
2023-05-01T00:06:05.842Z,95946
2023-05-01T00:07:05.729Z,95943
2023-05-01T00:08:05.728Z,95945
2023-05-01T00:09:05.721Z,95945
2023-05-01T00:10:05.699Z,95948
2023-05-01T00:11:05.771Z,95946
2023-05-01T00:13:05.790Z,95939
2023-05-01T00:14:05.764Z,95940
2023-05-01T00:17:05.742Z,95943
2023-05-01T00:21:05.788Z,95942
2023-05-01T00:24:05.745Z,95939
2023-05-01T00:25:05.759Z,95941
2023-05-01T00:26:05.794Z,95941
2023-05-01T00:27:05.811Z,95943
2023-05-01T00:28:05.759Z,95943
2023-05-01T00:33:05.833Z,95939
2023-05-01T00:34:05.833Z,95942
2023-05-01T00:35:05.811Z,95941
2023-05-01T00:36:05.809Z,95940
2023-05-01T00:38:05.791Z,95941
2023-05-01T00:39:05.832Z,95938
2023-05-01T00:40:05.819Z,95938
2023-05-01T00:41:05.790Z,95938
2023-05-01T00:42:05.818Z,95935
2023-05-01T00:43:05.783Z,95935
2023-05-01T00:44:05.890Z,95938
2023-05-01T00:45:05.832Z,95939
2023-05-01T00:46:05.911Z,95939
2023-05-01T00:47:05.834Z,95938
2023-05-01T00:48:05.883Z,95937
2023-05-01T00:49:05.866Z,95938
2023-05-01T00:50:05.839Z,95938
2023-05-01T00:51:05.822Z,95939
2023-05-01T00:52:05.841Z,95940
2023-05-01T00:53:05.852Z,95938
2023-05-01T00:55:05.873Z,95942
2023-05-01T00:56:05.834Z,95938
2023-05-01T00:57:05.821Z,95938
2023-05-01T00:58:05.862Z,95939
2023-05-01T00:59:05.841Z,95935
2023-05-01T01:00:05.936Z,95938
2023-05-01T01:01:05.941Z,95935
2023-05-01T01:02:05.916Z,95934
2023-05-01T01:03:05.955Z,95936
2023-05-01T01:04:05.888Z,95936
2023-05-01T01:05:05.905Z,95940
2023-05-01T01:06:05.908Z,95939
2023-05-01T01:07:05.861Z,95936
2023-05-01T01:08:05.877Z,95936
2023-05-01T01:09:05.884Z,95933
2023-05-01T01:10:05.893Z,95934
2023-05-01T01:11:05.916Z,95930
2023-05-01T01:12:05.864Z,95930
2023-05-01T01:13:05.936Z,95929
2023-05-01T01:14:05.934Z,95933
2023-05-01T01:15:05.913Z,95929
2023-05-01T01:16:05.933Z,95928
2023-05-01T01:17:05.980Z,95928
2023-05-01T01:18:06.035Z,95930
2023-05-01T01:19:05.908Z,95925
2023-05-01T01:21:05.980Z,95926
2023-05-01T01:22:05.920Z,95926
2023-05-01T01:23:05.955Z,95926
2023-05-01T01:24:05.884Z,95925
2023-05-01T01:25:05.937Z,95926
2023-05-01T01:26:05.968Z,95928
2023-05-01T01:28:05.977Z,95927
2023-05-01T01:29:05.957Z,95926
2023-05-01T01:30:05.919Z,95926
2023-05-01T01:31:06.032Z,95925
2023-05-01T01:32:05.955Z,95925
2023-05-01T01:33:05.965Z,95925
2023-05-01T01:34:06.030Z,95926
2023-05-01T01:35:05.993Z,95927
2023-05-01T01:37:05.979Z,95929
2023-05-01T01:38:05.954Z,95929
2023-05-01T01:39:05.958Z,95924
2023-05-01T01:41:06.003Z,95929
2023-05-01T01:42:06.018Z,95927
2023-05-01T01:43:05.995Z,95926
2023-05-01T01:44:06.010Z,95930
2023-05-01T01:45:06.005Z,95927
2023-05-01T01:46:06.058Z,95929
2023-05-01T01:47:06.051Z,95928
2023-05-01T01:49:06.040Z,95931
2023-05-01T01:50:05.986Z,95930
2023-05-01T01:51:06.028Z,95929
2023-05-01T01:53:06.041Z,95933
2023-05-01T01:54:06.062Z,95929
2023-05-01T02:00:06.001Z,95930
2023-05-01T02:01:06.019Z,95930
2023-05-01T02:02:06.107Z,95927
2023-05-01T02:04:06.081Z,95923
2023-05-01T02:07:06.062Z,95922
2023-05-01T02:08:06.068Z,95922
2023-05-01T02:09:06.088Z,95925
2023-05-01T02:10:06.054Z,95922
2023-05-01T02:11:06.079Z,95921
2023-05-01T02:12:06.102Z,95922
2023-05-01T02:13:06.126Z,95918
2023-05-01T02:14:06.082Z,95917
2023-05-01T02:15:06.109Z,95918
2023-05-01T02:17:06.065Z,95917
2023-05-01T02:18:06.090Z,95917
2023-05-01T02:19:06.101Z,95919
2023-05-01T02:21:06.093Z,95922
2023-05-01T02:22:06.065Z,95922
2023-05-01T02:23:06.123Z,95916
2023-05-01T02:24:06.120Z,95915
2023-05-01T02:25:06.102Z,95918
2023-05-01T02:26:06.091Z,95916
2023-05-01T02:27:06.134Z,95920
2023-05-01T02:28:06.148Z,95923
2023-05-01T02:29:06.219Z,95920
2023-05-01T02:30:06.102Z,95919
2023-05-01T02:31:06.100Z,95919
2023-05-01T02:32:06.239Z,95918
2023-05-01T02:34:06.157Z,95916
2023-05-01T02:35:06.099Z,95916
2023-05-01T02:36:06.159Z,95914
2023-05-01T02:37:06.150Z,95915
2023-05-01T02:38:06.137Z,95915
2023-05-01T02:39:06.174Z,95911
2023-05-01T02:41:06.118Z,95910
2023-05-01T02:42:06.155Z,95905
2023-05-01T02:44:06.121Z,95912
2023-05-01T02:45:06.192Z,95906
2023-05-01T02:46:06.211Z,95910
2023-05-01T02:47:06.202Z,95907
2023-05-01T02:48:06.392Z,95904
2023-05-01T02:49:06.139Z,95904
2023-05-01T02:51:06.194Z,95904
2023-05-01T02:52:06.183Z,95904
2023-05-01T02:56:06.138Z,95900
2023-05-01T02:57:06.183Z,95907
2023-05-01T03:00:06.168Z,95905
2023-05-01T03:02:06.182Z,95904
2023-05-01T03:04:06.219Z,95903
2023-05-01T03:05:06.185Z,95903
2023-05-01T03:06:06.250Z,95902
2023-05-01T03:07:06.155Z,95902
2023-05-01T03:08:06.217Z,95903
2023-05-01T03:10:06.235Z,95900
2023-05-01T03:11:06.202Z,95902
2023-05-01T03:12:06.217Z,95903
2023-05-01T03:13:06.232Z,95903
2023-05-01T03:14:06.205Z,95899
2023-05-01T03:15:06.228Z,95899
2023-05-01T03:18:06.227Z,95896
2023-05-01T03:20:06.208Z,95897
2023-05-01T03:22:06.209Z,95899
2023-05-01T03:23:06.239Z,95901
2023-05-01T03:25:06.230Z,95904
2023-05-01T03:26:06.254Z,95900
2023-05-01T03:27:06.211Z,95901
2023-05-01T03:28:06.296Z,95900
2023-05-01T03:29:06.255Z,95901
2023-05-01T03:30:06.224Z,95901
2023-05-01T03:32:06.318Z,95895
2023-05-01T03:33:06.352Z,95893
2023-05-01T03:34:06.284Z,95892
2023-05-01T03:35:06.320Z,95894
2023-05-01T03:36:06.255Z,95897
2023-05-01T03:38:06.287Z,95894
2023-05-01T03:39:06.292Z,95896
2023-05-01T03:40:06.272Z,95892
2023-05-01T03:42:06.280Z,95891
2023-05-01T03:43:06.262Z,95893
2023-05-01T03:46:06.351Z,95891
2023-05-01T03:47:06.282Z,95893
2023-05-01T03:48:06.330Z,95894
2023-05-01T03:49:06.302Z,95893
2023-05-01T03:50:06.283Z,95894
2023-05-01T03:51:06.292Z,95895
2023-05-01T03:53:06.272Z,95895
2023-05-01T03:54:06.331Z,95891
2023-05-01T03:55:06.333Z,95893
2023-05-01T03:56:06.287Z,95893
2023-05-01T03:58:06.360Z,95892
2023-05-01T03:59:06.347Z,95893
2023-05-01T04:00:06.380Z,95888
2023-05-01T04:02:06.362Z,95892
2023-05-01T04:03:06.501Z,95890
2023-05-01T04:04:06.390Z,95888
2023-05-01T04:05:06.343Z,95888
2023-05-01T04:07:06.345Z,95887
2023-05-01T04:08:06.375Z,95888
2023-05-01T04:09:06.351Z,95885
2023-05-01T04:10:06.394Z,95890
2023-05-01T04:11:06.383Z,95889
2023-05-01T04:12:06.352Z,95891
2023-05-01T04:13:06.378Z,95890
2023-05-01T04:14:06.340Z,95892
2023-05-01T04:15:06.333Z,95892
2023-05-01T04:17:06.406Z,95895
2023-05-01T04:18:06.436Z,95895
2023-05-01T04:19:06.356Z,95897
2023-05-01T04:20:06.412Z,95896
2023-05-01T04:21:06.404Z,95898
2023-05-01T04:22:06.355Z,95895
2023-05-01T04:23:06.352Z,95895
2023-05-01T04:24:06.440Z,95898
2023-05-01T04:25:06.364Z,95896
2023-05-01T04:26:06.383Z,95899
2023-05-01T04:27:06.374Z,95896
2023-05-01T04:28:06.384Z,95896
2023-05-01T04:29:06.399Z,95895
2023-05-01T04:32:06.450Z,95899
2023-05-01T04:33:06.475Z,95897
2023-05-01T04:34:06.441Z,95902
2023-05-01T04:35:06.394Z,95902
2023-05-01T04:36:06.402Z,95905
2023-05-01T04:37:06.465Z,95901
2023-05-01T04:39:06.459Z,95903
2023-05-01T04:40:06.679Z,95905
2023-05-01T04:41:06.446Z,95905
2023-05-01T04:42:06.447Z,95906
2023-05-01T04:44:06.436Z,95905
2023-05-01T04:46:06.500Z,95907
2023-05-01T04:47:06.486Z,95909
2023-05-01T04:49:06.476Z,95909
2023-05-01T04:50:06.434Z,95909
2023-05-01T04:54:06.463Z,95910
2023-05-01T04:55:06.476Z,95911
2023-05-01T04:56:06.449Z,95910
2023-05-01T04:57:06.495Z,95912
2023-05-01T04:58:06.500Z,95912
2023-05-01T04:59:06.482Z,95912
2023-05-01T05:00:06.472Z,95913
2023-05-01T05:01:06.455Z,95913
2023-05-01T05:02:06.577Z,95915
2023-05-01T05:03:06.563Z,95914
2023-05-01T05:05:06.483Z,95921
2023-05-01T05:06:06.597Z,95921
2023-05-01T05:07:06.523Z,95923
2023-05-01T05:10:06.538Z,95923
2023-05-01T05:12:06.505Z,95925
2023-05-01T05:13:06.509Z,95926
2023-05-01T05:14:06.458Z,95926
2023-05-01T05:16:06.531Z,95924
2023-05-01T05:17:06.477Z,95927
2023-05-01T05:18:06.527Z,95927
2023-05-01T05:19:06.521Z,95925
2023-05-01T05:20:06.539Z,95927
2023-05-01T05:21:06.504Z,95926
2023-05-01T05:22:06.512Z,95924
2023-05-01T05:23:08.295Z,95927
2023-05-01T05:24:06.528Z,95927
2023-05-01T05:25:06.509Z,95928
2023-05-01T05:26:06.607Z,95929
2023-05-01T05:27:06.548Z,95932
2023-05-01T05:28:06.570Z,95930
2023-05-01T05:29:06.547Z,95930
2023-05-01T05:30:06.536Z,95933
2023-05-01T05:31:06.544Z,95933
2023-05-01T05:32:06.580Z,95933
2023-05-01T05:33:06.608Z,95928
2023-05-01T05:34:06.583Z,95933
2023-05-01T05:36:06.578Z,95929
2023-05-01T05:37:06.594Z,95930
2023-05-01T05:38:06.606Z,95931
2023-05-01T05:40:06.574Z,95933
2023-05-01T05:41:06.561Z,95932
2023-05-01T05:42:06.567Z,95934
2023-05-01T05:43:06.553Z,95935
2023-05-01T05:45:06.653Z,95935
2023-05-01T05:46:06.653Z,95937
2023-05-01T05:47:06.615Z,95939
2023-05-01T05:48:06.646Z,95939
2023-05-01T05:49:06.595Z,95936
2023-05-01T05:50:06.601Z,95937
2023-05-01T05:54:06.663Z,95942
2023-05-01T05:55:06.603Z,95939
2023-05-01T05:56:06.603Z,95939
2023-05-01T05:58:06.644Z,95943
2023-05-01T05:59:06.611Z,95942
2023-05-01T06:01:06.620Z,95942
2023-05-01T06:03:06.746Z,95941
2023-05-01T06:08:06.660Z,95941
2023-05-01T06:10:06.690Z,95941
2023-05-01T06:11:06.659Z,95939
2023-05-01T06:13:13.171Z,95940
2023-05-01T06:14:06.649Z,95942
2023-05-01T06:15:06.695Z,95939
2023-05-01T06:16:06.711Z,95940
2023-05-01T06:17:06.646Z,95937
2023-05-01T06:18:06.773Z,95938
2023-05-01T06:19:06.721Z,95936
2023-05-01T06:20:06.686Z,95938
2023-05-01T06:22:06.663Z,95934
2023-05-01T06:23:06.717Z,95933
2023-05-01T06:24:06.778Z,95939
2023-05-01T06:25:06.717Z,95935
2023-05-01T06:26:06.720Z,95935
2023-05-01T06:27:06.700Z,95936
2023-05-01T06:28:06.723Z,95936
2023-05-01T06:31:06.836Z,95935
2023-05-01T06:32:06.666Z,95935
2023-05-01T06:34:06.707Z,95936
2023-05-01T06:37:06.753Z,95932
2023-05-01T06:38:06.750Z,95935
2023-05-01T06:39:06.702Z,95935
2023-05-01T06:41:06.701Z,95932
2023-05-01T06:42:06.784Z,95937
2023-05-01T06:43:06.694Z,95937
2023-05-01T06:44:06.737Z,95937
2023-05-01T06:45:06.771Z,95936
2023-05-01T06:46:06.742Z,95940
2023-05-01T06:47:06.834Z,95940
2023-05-01T06:48:06.844Z,95937
2023-05-01T06:49:06.752Z,95940
2023-05-01T06:50:06.774Z,95939
2023-05-01T06:51:06.787Z,95936
2023-05-01T06:52:06.775Z,95934
2023-05-01T06:53:06.740Z,95942
2023-05-01T06:54:06.775Z,95940
2023-05-01T06:55:06.747Z,95942
2023-05-01T06:56:06.737Z,95942
2023-05-01T06:57:06.793Z,95944
2023-05-01T06:58:12.727Z,95943
2023-05-01T06:59:06.770Z,95943
2023-05-01T07:00:06.803Z,95944
2023-05-01T07:01:06.860Z,95946
2023-05-01T07:02:06.884Z,95947
2023-05-01T07:03:06.884Z,95948
2023-05-01T07:04:06.798Z,95951
2023-05-01T07:05:06.804Z,95946
2023-05-01T07:06:06.839Z,95951
2023-05-01T07:07:06.816Z,95949
2023-05-01T07:08:06.802Z,95951
2023-05-01T07:09:06.771Z,95950
2023-05-01T07:10:06.833Z,95952
2023-05-01T07:11:06.779Z,95953
2023-05-01T07:12:06.796Z,95952
2023-05-01T07:13:06.828Z,95954
2023-05-01T07:14:06.793Z,95954
2023-05-01T07:15:06.886Z,95956
2023-05-01T07:16:06.872Z,95957
2023-05-01T07:17:06.824Z,95955
2023-05-01T07:18:06.905Z,95950
2023-05-01T07:19:06.805Z,95950
2023-05-01T07:20:06.846Z,95949
2023-05-01T07:21:06.827Z,95952
2023-05-01T07:22:06.804Z,95952
2023-05-01T07:23:07.662Z,95950
2023-05-01T07:24:06.789Z,95951
2023-05-01T07:25:06.867Z,95951
2023-05-01T07:26:06.844Z,95948
2023-05-01T07:27:06.838Z,95953
2023-05-01T07:28:06.862Z,95953
2023-05-01T07:29:06.874Z,95951
2023-05-01T07:30:06.895Z,95954
2023-05-01T07:31:06.887Z,95952
2023-05-01T07:35:06.904Z,95948
2023-05-01T07:36:06.908Z,95952
2023-05-01T07:37:06.840Z,95950
2023-05-01T07:38:06.879Z,95950
2023-05-01T07:39:06.898Z,95950
2023-05-01T07:40:06.865Z,95950
2023-05-01T07:41:06.926Z,95951
2023-05-01T07:43:08.360Z,95952
2023-05-01T07:44:06.892Z,95950
2023-05-01T07:45:06.880Z,95950
2023-05-01T07:46:06.940Z,95947
2023-05-01T07:47:06.916Z,95955
2023-05-01T07:48:06.932Z,95952
2023-05-01T07:49:06.925Z,95952
2023-05-01T07:50:06.877Z,95951
2023-05-01T07:51:06.936Z,95951
2023-05-01T07:52:06.881Z,95956
2023-05-01T07:53:06.924Z,95956
2023-05-01T07:54:06.910Z,95955
2023-05-01T07:55:06.894Z,95956
2023-05-01T07:56:06.954Z,95957
2023-05-01T07:57:06.914Z,95956
2023-05-01T07:58:06.897Z,95957
2023-05-01T07:59:06.969Z,95959
2023-05-01T08:00:06.987Z,95959
2023-05-01T08:01:06.917Z,95962
2023-05-01T08:02:07.003Z,95962
2023-05-01T08:03:07.254Z,95963
2023-05-01T08:04:07.060Z,95967
2023-05-01T08:05:06.954Z,95968
2023-05-01T08:06:07.124Z,95968
2023-05-01T08:07:06.960Z,95967
2023-05-01T08:09:06.998Z,95967
2023-05-01T08:11:06.930Z,95972
2023-05-01T08:13:06.971Z,95973
2023-05-01T08:14:06.956Z,95973
2023-05-01T08:15:08.668Z,95973
2023-05-01T08:16:06.986Z,95975
2023-05-01T08:18:07.079Z,95974
2023-05-01T08:19:06.978Z,95976
2023-05-01T08:20:07.023Z,95975
2023-05-01T08:21:07.008Z,95972
2023-05-01T08:22:07.002Z,95976
2023-05-01T08:23:07.034Z,95974
2023-05-01T08:24:06.970Z,95975
2023-05-01T08:25:07.038Z,95973
2023-05-01T08:26:07.030Z,95977
2023-05-01T08:27:07.012Z,95977
2023-05-01T08:28:06.964Z,95972
2023-05-01T08:29:07.055Z,95975
2023-05-01T08:30:07.022Z,95978
2023-05-01T08:31:07.042Z,95977
2023-05-01T08:32:06.980Z,95976
2023-05-01T08:33:07.088Z,95974
2023-05-01T08:34:07.055Z,95978
2023-05-01T08:35:07.069Z,95977
2023-05-01T08:36:07.061Z,95977
2023-05-01T08:37:07.005Z,95979
2023-05-01T08:38:07.037Z,95976
2023-05-01T08:39:07.034Z,95978
2023-05-01T08:40:07.048Z,95977
2023-05-01T08:41:07.059Z,95978
2023-05-01T08:42:07.031Z,95978
2023-05-01T08:43:07.039Z,95980
2023-05-01T08:44:07.036Z,95978
2023-05-01T08:45:07.073Z,95978
2023-05-01T08:46:07.063Z,95981
2023-05-01T08:47:07.110Z,95980
2023-05-01T08:48:07.219Z,95980
2023-05-01T08:49:07.110Z,95980
2023-05-01T08:50:07.058Z,95978
2023-05-01T08:51:07.069Z,95981
2023-05-01T08:52:08.816Z,95984
2023-05-01T08:53:07.169Z,95984
2023-05-01T08:54:07.095Z,95984
2023-05-01T08:55:07.066Z,95980
2023-05-01T08:56:07.099Z,95980
2023-05-01T08:57:10.148Z,95985
2023-05-01T08:58:07.064Z,95985
2023-05-01T08:59:07.095Z,95982
2023-05-01T09:00:07.092Z,95986
2023-05-01T09:01:07.140Z,95984
2023-05-01T09:03:07.165Z,95986
2023-05-01T09:04:07.156Z,95986
2023-05-01T09:05:07.090Z,95984
2023-05-01T09:07:07.128Z,95986
2023-05-01T09:08:07.112Z,95987
2023-05-01T09:10:07.123Z,95988
2023-05-01T09:12:07.109Z,95992
2023-05-01T09:13:07.141Z,95988
2023-05-01T09:14:07.090Z,95985
2023-05-01T09:16:07.224Z,95987
2023-05-01T09:17:07.119Z,95988
2023-05-01T09:18:07.149Z,95989
2023-05-01T09:19:07.117Z,95989
2023-05-01T09:20:07.163Z,95993
2023-05-01T09:21:07.141Z,95988
2023-05-01T09:22:07.134Z,95991
2023-05-01T09:23:07.153Z,95992
2023-05-01T09:24:07.106Z,95992
2023-05-01T09:25:07.113Z,95992
2023-05-01T09:26:07.172Z,95992
2023-05-01T09:27:07.171Z,95996
2023-05-01T09:28:07.180Z,95994
2023-05-01T09:29:09.075Z,95990
2023-05-01T09:30:07.180Z,95994
2023-05-01T09:31:07.165Z,95996
2023-05-01T09:32:07.202Z,95996
2023-05-01T09:33:07.243Z,95998
2023-05-01T09:34:07.205Z,95999
2023-05-01T09:35:07.176Z,95999
2023-05-01T09:37:07.160Z,96001
2023-05-01T09:38:07.138Z,96000
2023-05-01T09:39:07.184Z,95997
2023-05-01T09:40:07.247Z,96002
2023-05-01T09:41:07.217Z,95999
2023-05-01T09:42:07.171Z,95999
2023-05-01T09:43:07.208Z,96005
2023-05-01T09:44:07.221Z,95999
2023-05-01T09:45:07.156Z,96001
2023-05-01T09:46:07.309Z,96000
2023-05-01T09:47:07.206Z,96001
2023-05-01T09:48:07.301Z,96002
2023-05-01T09:49:07.202Z,96004
2023-05-01T09:50:07.178Z,96004
2023-05-01T09:51:07.232Z,96006
2023-05-01T09:52:07.246Z,96006
2023-05-01T09:53:07.254Z,96002
2023-05-01T09:55:07.227Z,96003
2023-05-01T09:56:07.225Z,96003
2023-05-01T09:57:08.438Z,96006
2023-05-01T09:58:07.257Z,96004
2023-05-01T09:59:07.289Z,96005
2023-05-01T10:00:07.234Z,96005
2023-05-01T10:01:07.294Z,95997
2023-05-01T10:02:07.314Z,95997
2023-05-01T10:03:08.570Z,95998
2023-05-01T10:04:07.326Z,96001
2023-05-01T10:05:07.255Z,96000
2023-05-01T10:06:09.321Z,96002
2023-05-01T10:07:07.279Z,96000
2023-05-01T10:08:07.267Z,96003
2023-05-01T10:09:07.315Z,96002
2023-05-01T10:10:07.230Z,96002
2023-05-01T10:11:07.243Z,95998
2023-05-01T10:12:07.338Z,96000
2023-05-01T10:13:07.304Z,96000
2023-05-01T10:14:07.269Z,95996
2023-05-01T10:15:23.301Z,95995
2023-05-01T10:17:07.289Z,95996
2023-05-01T10:18:07.327Z,95997
2023-05-01T10:19:07.327Z,95995
2023-05-01T10:20:07.337Z,95998
2023-05-01T10:21:07.285Z,95998
2023-05-01T10:22:07.342Z,95998
2023-05-01T10:23:07.290Z,95999
2023-05-01T10:24:07.305Z,95999
2023-05-01T10:25:07.334Z,96001
2023-05-01T10:26:07.301Z,95996
2023-05-01T10:27:07.325Z,95994
2023-05-01T10:28:07.318Z,95996
2023-05-01T10:29:07.313Z,95998
2023-05-01T10:30:07.311Z,95997
2023-05-01T10:31:07.371Z,95996
2023-05-01T10:32:07.286Z,95996
2023-05-01T10:33:07.365Z,95996
2023-05-01T10:34:07.310Z,95999
2023-05-01T10:35:07.357Z,95999
2023-05-01T10:36:07.314Z,95999
2023-05-01T10:37:07.336Z,95997
2023-05-01T10:38:07.364Z,95995
2023-05-01T10:39:07.304Z,95998
2023-05-01T10:40:07.359Z,95998
2023-05-01T10:41:07.298Z,95994
2023-05-01T10:42:07.369Z,95996
2023-05-01T10:43:09.477Z,95996
2023-05-01T10:44:07.344Z,95993
2023-05-01T10:45:07.321Z,95994
2023-05-01T10:46:07.394Z,95994
2023-05-01T10:47:07.357Z,95996
2023-05-01T10:48:07.452Z,95995
2023-05-01T10:49:07.371Z,95992
2023-05-01T10:50:07.360Z,95989
2023-05-01T10:51:07.408Z,95991
2023-05-01T10:52:07.357Z,95989
2023-05-01T10:53:07.389Z,95985
2023-05-01T10:54:07.414Z,95985
2023-05-01T10:55:07.343Z,95985
2023-05-01T10:57:07.362Z,95985
2023-05-01T10:58:07.387Z,95984
2023-05-01T10:59:07.402Z,95983
2023-05-01T11:00:07.356Z,95982
2023-05-01T11:01:07.389Z,95984
2023-05-01T11:02:07.469Z,95984
2023-05-01T11:03:07.433Z,95984
2023-05-01T11:04:07.419Z,95981
2023-05-01T11:05:07.490Z,95981
2023-05-01T11:06:07.473Z,95982
2023-05-01T11:07:07.519Z,95981
2023-05-01T11:08:07.384Z,95983
2023-05-01T11:09:07.410Z,95985
2023-05-01T11:10:07.387Z,95982
2023-05-01T11:11:07.433Z,95983
2023-05-01T11:12:07.448Z,95984
2023-05-01T11:13:07.417Z,95984
2023-05-01T11:14:07.474Z,95987
2023-05-01T11:15:07.427Z,95986
2023-05-01T11:16:07.424Z,95983
2023-05-01T11:17:07.452Z,95984
2023-05-01T11:18:07.757Z,95984
2023-05-01T11:19:07.471Z,95982
2023-05-01T11:20:09.711Z,95988
2023-05-01T11:21:07.413Z,95988
2023-05-01T11:22:07.440Z,95984
2023-05-01T11:23:07.460Z,95986
2023-05-01T11:24:07.468Z,95991
2023-05-01T11:25:07.444Z,95991
2023-05-01T11:26:07.428Z,95984
2023-05-01T11:27:07.456Z,95984
2023-05-01T11:28:07.494Z,95983
2023-05-01T11:29:07.440Z,95983
2023-05-01T11:31:07.479Z,95980
2023-05-01T11:32:07.507Z,95981
2023-05-01T11:34:07.498Z,95983
2023-05-01T11:35:07.479Z,95983
2023-05-01T11:36:07.478Z,95983
2023-05-01T11:37:07.475Z,95985
2023-05-01T11:38:07.475Z,95983
2023-05-01T11:39:07.456Z,95985
2023-05-01T11:40:07.511Z,95988
2023-05-01T11:41:07.497Z,95988
2023-05-01T11:42:07.505Z,95984
2023-05-01T11:44:07.706Z,95981
2023-05-01T11:45:07.531Z,95979
2023-05-01T11:46:07.599Z,95981
2023-05-01T11:47:07.496Z,95984
2023-05-01T11:48:07.553Z,95983
2023-05-01T11:49:07.554Z,95983
2023-05-01T11:50:07.578Z,95984
2023-05-01T11:51:07.570Z,95985
2023-05-01T11:52:07.479Z,95985
2023-05-01T11:53:07.526Z,95985
2023-05-01T11:54:07.569Z,95981
2023-05-01T11:55:07.477Z,95989
2023-05-01T11:56:16.217Z,95989
2023-05-01T11:58:07.567Z,95988
2023-05-01T11:59:07.570Z,95988
2023-05-01T12:00:07.546Z,95988
2023-05-01T12:01:07.605Z,95986
2023-05-01T12:02:07.581Z,95990
2023-05-01T12:03:07.950Z,95989
2023-05-01T12:05:07.903Z,95986
2023-05-01T12:06:07.601Z,95987
2023-05-01T12:07:07.579Z,95986
2023-05-01T12:08:07.517Z,95986
2023-05-01T12:09:07.578Z,95985
2023-05-01T12:10:07.597Z,95983
2023-05-01T12:11:07.546Z,95986
2023-05-01T12:12:07.600Z,95986
2023-05-01T12:13:07.574Z,95986
2023-05-01T12:14:07.602Z,95984
2023-05-01T12:15:07.630Z,95985
2023-05-01T12:16:07.592Z,95984
2023-05-01T12:18:07.645Z,95987
2023-05-01T12:19:07.557Z,95987
2023-05-01T12:20:07.570Z,95986
2023-05-01T12:21:07.565Z,95986
2023-05-01T12:22:07.680Z,95988
2023-05-01T12:23:07.651Z,95991
2023-05-01T12:24:07.614Z,95989
2023-05-01T12:25:07.638Z,95988
2023-05-01T12:26:07.619Z,95988
2023-05-01T12:27:07.657Z,95991
2023-05-01T12:28:07.634Z,95989
2023-05-01T12:29:07.585Z,95991
2023-05-01T12:30:07.734Z,95995
2023-05-01T12:31:07.692Z,95995
2023-05-01T12:32:07.830Z,95991
2023-05-01T12:33:07.699Z,95992
2023-05-01T12:34:10.165Z,95992
2023-05-01T12:35:07.639Z,95994
2023-05-01T12:36:07.635Z,95992
2023-05-01T12:37:07.664Z,95992
2023-05-01T12:38:07.679Z,95993
2023-05-01T12:39:07.620Z,95991
2023-05-01T12:40:07.796Z,95988
2023-05-01T12:41:07.677Z,95993
2023-05-01T12:42:07.665Z,95990
2023-05-01T12:43:07.640Z,95993
2023-05-01T12:44:07.643Z,95993
2023-05-01T12:45:07.682Z,95992
2023-05-01T12:46:07.703Z,95992
2023-05-01T12:47:07.617Z,95991
2023-05-01T12:48:07.685Z,95994
2023-05-01T12:50:07.830Z,95989
2023-05-01T12:51:07.737Z,95990
2023-05-01T12:52:07.652Z,95988
2023-05-01T12:53:07.699Z,95988
2023-05-01T12:54:07.680Z,95990
2023-05-01T12:55:07.725Z,95989
2023-05-01T12:56:07.691Z,95987
2023-05-01T12:58:07.720Z,95985
2023-05-01T12:59:07.691Z,95977
2023-05-01T13:00:07.724Z,95977
2023-05-01T13:01:07.741Z,95979
2023-05-01T13:02:07.862Z,95980
2023-05-01T13:03:07.781Z,95976
2023-05-01T13:04:07.801Z,95982
2023-05-01T13:05:07.688Z,95983
2023-05-01T13:06:07.824Z,95983
2023-05-01T13:07:07.740Z,95982
2023-05-01T13:08:07.669Z,95982
2023-05-01T13:10:07.745Z,95985
2023-05-01T13:11:10.444Z,95978
2023-05-01T13:12:07.743Z,95988
2023-05-01T13:13:07.683Z,95988
2023-05-01T13:14:07.739Z,95984
2023-05-01T13:15:07.728Z,95985
2023-05-01T13:16:07.773Z,95985
2023-05-01T13:17:09.257Z,95987
2023-05-01T13:18:07.822Z,95990
2023-05-01T13:20:07.747Z,95993
2023-05-01T13:21:07.772Z,95989
2023-05-01T13:22:07.771Z,95995
2023-05-01T13:23:07.727Z,95995
2023-05-01T13:24:07.789Z,96003
2023-05-01T13:25:07.759Z,95996
2023-05-01T13:26:07.784Z,96000
2023-05-01T13:27:07.781Z,95998
2023-05-01T13:28:07.752Z,95998
2023-05-01T13:29:07.789Z,95997
2023-05-01T13:30:07.800Z,95997
2023-05-01T13:31:07.764Z,95990
2023-05-01T13:32:08.052Z,95991
2023-05-01T13:33:07.987Z,95990
2023-05-01T13:34:07.805Z,95992
2023-05-01T13:35:07.777Z,95989
2023-05-01T13:36:17.753Z,95989
2023-05-01T13:37:07.776Z,95981
2023-05-01T13:38:07.798Z,95979
2023-05-01T13:39:07.810Z,95973
2023-05-01T13:40:07.797Z,95972
2023-05-01T13:41:07.773Z,95969
2023-05-01T13:42:07.798Z,95964
2023-05-01T13:43:07.781Z,95964
2023-05-01T13:44:07.813Z,95963
2023-05-01T13:45:07.808Z,95961
2023-05-01T13:46:07.909Z,95963
2023-05-01T13:47:07.808Z,95961
2023-05-01T13:48:10.643Z,95958
2023-05-01T13:49:07.801Z,95963
2023-05-01T13:50:07.822Z,95957
2023-05-01T13:52:07.821Z,95954
2023-05-01T13:53:07.857Z,95953
2023-05-01T13:54:07.834Z,95953
2023-05-01T13:55:07.873Z,95954
2023-05-01T13:56:07.833Z,95953
2023-05-01T13:57:07.803Z,95947
2023-05-01T13:58:07.854Z,95948
2023-05-01T13:59:07.839Z,95949
2023-05-01T14:00:07.886Z,95949
2023-05-01T14:01:07.901Z,95956
2023-05-01T14:02:07.863Z,95956
2023-05-01T14:03:07.928Z,95953
2023-05-01T14:04:07.882Z,95953
2023-05-01T14:05:08.289Z,95957
2023-05-01T14:06:07.921Z,95949
2023-05-01T14:07:07.881Z,95955
2023-05-01T14:08:07.879Z,95952
2023-05-01T14:09:07.861Z,95960
2023-05-01T14:10:07.831Z,95955
2023-05-01T14:11:07.893Z,95955
2023-05-01T14:12:07.916Z,95954
2023-05-01T14:13:07.881Z,95954
2023-05-01T14:14:07.900Z,95956
2023-05-01T14:15:07.865Z,95956
2023-05-01T14:16:07.916Z,95955
2023-05-01T14:17:08.081Z,95955
2023-05-01T14:18:07.911Z,95955
2023-05-01T14:19:07.909Z,95955
2023-05-01T14:20:07.932Z,95958
2023-05-01T14:21:07.918Z,95962
2023-05-01T14:22:07.883Z,95962
2023-05-01T14:23:07.864Z,95960
2023-05-01T14:24:07.903Z,95963
2023-05-01T14:25:10.763Z,95964
2023-05-01T14:26:07.907Z,95965
2023-05-01T14:27:07.912Z,95962
2023-05-01T14:28:07.975Z,95962
2023-05-01T14:29:07.941Z,95964
2023-05-01T14:30:07.909Z,95968
2023-05-01T14:31:07.934Z,95964
2023-05-01T14:32:07.920Z,95962
2023-05-01T14:33:08.241Z,95959
2023-05-01T14:34:07.921Z,95957
2023-05-01T14:35:07.957Z,95961
2023-05-01T14:36:07.925Z,95961
2023-05-01T14:37:07.966Z,95960
2023-05-01T14:38:07.959Z,95960
2023-05-01T14:39:07.970Z,95965
2023-05-01T14:40:07.973Z,95964
2023-05-01T14:41:10.063Z,95964
2023-05-01T14:42:07.949Z,95967
2023-05-01T14:43:07.940Z,95968
2023-05-01T14:44:07.931Z,95968
2023-05-01T14:45:07.988Z,95964
2023-05-01T14:46:08.045Z,95970
2023-05-01T14:47:07.948Z,95974
2023-05-01T14:48:07.990Z,95968
2023-05-01T14:49:07.925Z,95968
2023-05-01T14:50:08.164Z,95975
2023-05-01T14:51:07.969Z,95975
2023-05-01T14:52:09.335Z,95972
2023-05-01T14:53:07.987Z,95970
2023-05-01T14:54:07.978Z,95969
2023-05-01T14:55:08.009Z,95965